Time;durP1;ratioP1;P1;durP2;ratioP2;P2;SDS_P1;SDS_P2;PMS_P1;PMS_P2;Temp;Humidity;BMP_temperature;BMP_pressure;BME280_temperature;BME280_humidity;BME280_pressure;Samples;Min_cycle;Max_cycle;Signal;HPM_P1;HPM_P2
2022/06/04 00:00:58;;;;;;;16.10;15.00;;;13.80;94.60;;;;;;5112821;28;20568;-76
2022/06/04 00:03:27;;;;;;;17.00;15.90;;;13.70;94.70;;;;;;5114008;28;20941;-77
2022/06/04 00:05:58;;;;;;;18.30;17.10;;;13.70;94.80;;;;;;5112826;28;20447;-76
2022/06/04 00:08:27;;;;;;;20.07;18.87;;;13.60;94.90;;;;;;5114675;28;20423;-76
2022/06/04 00:16:29;;;;;;;25.63;24.23;;;13.50;95.30;;;;;;5112772;28;20446;-76
2022/06/04 00:18:58;;;;;;;26.50;25.00;;;13.50;95.40;;;;;;5112754;28;20450;-77
2022/06/04 00:21:27;;;;;;;26.37;24.87;;;13.40;95.50;;;;;;5112663;28;20478;-76
2022/06/04 00:23:55;;;;;;;26.17;24.67;;;13.40;95.60;;;;;;5113661;28;20451;-77
2022/06/04 00:26:23;;;;;;;25.90;24.50;;;13.40;95.70;;;;;;5113910;28;20792;-77
2022/06/04 00:28:53;;;;;;;28.77;27.17;;;13.30;95.70;;;;;;5112550;28;20546;-76
2022/06/04 00:31:21;;;;;;;26.97;25.43;;;13.30;95.80;;;;;;5113811;28;20431;-76
2022/06/04 00:33:49;;;;;;;29.83;28.17;;;13.30;95.90;;;;;;5113627;28;20479;-76
2022/06/04 00:36:17;;;;;;;27.47;25.87;;;13.30;96.00;;;;;;5113717;28;20439;-77
2022/06/04 00:38:46;;;;;;;26.97;25.57;;;13.30;96.10;;;;;;5114007;28;20500;-76
2022/06/04 00:41:24;;;;;;;30.23;28.60;;;13.30;96.20;;;;;;5112435;28;20443;-77
2022/06/04 00:44:02;;;;;;;30.47;28.97;;;13.30;96.30;;;;;;5113609;28;20568;-77
2022/06/04 00:47:02;;;;;;;32.17;30.37;;;13.20;96.30;;;;;;5112407;28;21001;-76
2022/06/04 00:49:31;;;;;;;30.47;28.77;;;13.20;96.40;;;;;;5109322;28;20512;-76
2022/06/04 00:52:06;;;;;;;29.97;28.47;;;13.10;96.40;;;;;;5112271;28;20444;-76
2022/06/04 00:54:35;;;;;;;30.60;29.00;;;13.10;96.50;;;;;;5112443;28;20466;-77
2022/06/04 00:57:16;;;;;;;29.77;28.07;;;13.10;96.60;;;;;;5112213;28;20940;-76
2022/06/04 00:59:53;;;;;;;30.77;29.10;;;13.10;96.70;;;;;;5112420;28;21032;-77
2022/06/04 01:02:28;;;;;;;33.30;31.63;;;13.00;96.70;;;;;;5112237;28;20478;-75
2022/06/04 01:05:07;;;;;;;37.03;35.27;;;13.00;96.80;;;;;;5112343;28;20826;-76
2022/06/04 01:07:54;;;;;;;41.00;39.10;;;13.00;96.90;;;;;;5112171;28;20943;-75
2022/06/04 01:10:32;;;;;;;40.77;38.87;;;13.00;96.90;;;;;;5112222;28;20428;-76
2022/06/04 01:13:11;;;;;;;40.37;38.37;;;12.90;97.00;;;;;;5112080;28;20895;-75
2022/06/04 01:15:51;;;;;;;37.53;35.73;;;12.90;97.00;;;;;;5112072;28;20440;-77
2022/06/04 01:18:31;;;;;;;48.07;45.83;;;12.90;97.10;;;;;;5112097;28;20451;-77
2022/06/04 01:21:08;;;;;;;59.97;57.50;;;12.90;97.20;;;;;;5112185;28;20431;-77
2022/06/04 01:24:07;;;;;;;55.47;52.87;;;12.90;97.20;;;;;;5113557;28;20482;-76
2022/06/04 01:26:53;;;;;;;58.00;55.57;;;12.80;97.30;;;;;;5113591;28;20451;-77
2022/06/04 01:29:26;;;;;;;64.13;61.33;;;12.80;97.40;;;;;;5112056;28;20569;-77
2022/06/04 01:32:08;;;;;;;72.27;69.37;;;12.80;97.40;;;;;;5111965;28;20439;-77
2022/06/04 01:34:41;;;;;;;64.17;61.53;;;12.80;97.50;;;;;;5114657;28;20475;-77
2022/06/04 01:37:16;;;;;;;63.27;60.67;;;12.70;97.50;;;;;;5115651;28;20534;-77
2022/06/04 01:42:38;;;;;;;59.40;56.77;;;12.70;97.60;;;;;;5117110;28;20418;-77
2022/06/04 01:45:10;;;;;;;60.20;57.60;;;12.70;97.70;;;;;;5116737;27;21039;-76
2022/06/04 01:47:40;;;;;;;65.07;62.13;;;12.70;97.70;;;;;;5117090;27;20415;-77
2022/06/04 01:50:13;;;;;;;72.70;69.60;;;12.60;97.80;;;;;;5115446;28;20554;-77
2022/06/04 01:52:42;;;;;;;57.17;54.67;;;12.60;97.80;;;;;;5115437;28;20442;-77
2022/06/04 01:55:14;;;;;;;62.20;59.43;;;12.60;97.90;;;;;;5115196;28;20471;-76
2022/06/04 01:57:49;;;;;;;61.00;58.40;;;12.60;97.90;;;;;;5116564;28;20422;-77
2022/06/04 02:00:21;;;;;;;64.57;61.93;;;12.60;98.00;;;;;;5116718;28;20785;-76
2022/06/04 02:02:55;;;;;;;58.50;55.87;;;12.50;98.00;;;;;;5115211;28;20442;-77
2022/06/04 02:05:28;;;;;;;60.47;57.37;;;12.50;98.10;;;;;;5115118;28;20850;-77
2022/06/04 02:07:59;;;;;;;57.13;54.53;;;12.50;98.20;;;;;;5115131;28;20451;-76
2022/06/04 02:10:31;;;;;;;56.03;53.43;;;12.40;98.20;;;;;;5116660;28;20428;-76
2022/06/04 02:13:03;;;;;;;48.60;46.40;;;12.40;98.30;;;;;;5114926;28;20463;-76
2022/06/04 02:15:37;;;;;;;47.80;45.57;;;12.30;98.40;;;;;;5114884;28;21066;-76
2022/06/04 02:18:09;;;;;;;49.87;47.57;;;12.30;98.50;;;;;;5114896;28;20439;-76
2022/06/04 02:20:37;;;;;;;50.53;48.40;;;12.30;98.50;;;;;;5115141;28;20770;-76
2022/06/04 02:23:06;;;;;;;48.77;46.43;;;12.30;98.60;;;;;;5114763;28;20443;-76
2022/06/04 02:25:35;;;;;;;56.43;53.80;;;12.20;98.70;;;;;;5115858;28;20904;-76
2022/06/04 02:28:06;;;;;;;51.03;48.50;;;12.20;98.60;;;;;;5114555;28;20497;-76
2022/06/04 02:30:47;;;;;;;51.67;49.07;;;12.20;98.70;;;;;;5115835;28;20593;-76
2022/06/04 02:33:24;;;;;;;50.40;47.80;;;12.20;99.10;;;;;;5115963;28;20451;-76
2022/06/04 02:35:58;;;;;;;53.70;51.17;;;12.10;98.80;;;;;;5114525;28;20435;-76
2022/06/04 02:38:36;;;;;;;51.70;49.20;;;12.10;98.90;;;;;;5116039;28;20826;-77
2022/06/04 02:41:10;;;;;;;52.20;49.70;;;12.10;99.00;;;;;;5115676;28;20515;-76
2022/06/04 02:43:44;;;;;;;50.13;47.67;;;12.10;99.00;;;;;;5114328;28;20499;-76
2022/06/04 02:46:20;;;;;;;51.30;48.47;;;12.10;99.10;;;;;;5115662;28;20552;-77
2022/06/04 02:48:58;;;;;;;53.47;50.87;;;12.10;99.10;;;;;;5116187;28;20466;-76
2022/06/04 02:51:32;;;;;;;53.77;51.17;;;12.10;99.10;;;;;;5115716;28;20423;-76
2022/06/04 02:54:04;;;;;;;54.00;51.47;;;12.00;99.10;;;;;;5115558;28;20569;-76
2022/06/04 02:56:35;;;;;;;54.47;51.97;;;12.00;99.20;;;;;;5114300;28;20866;-76
2022/06/04 02:59:07;;;;;;;52.80;50.10;;;12.00;99.30;;;;;;5114074;28;20451;-77
2022/06/04 03:01:41;;;;;;;53.17;50.77;;;11.90;99.30;;;;;;5115552;28;20416;-76
2022/06/04 03:04:10;;;;;;;56.33;53.47;;;11.90;99.40;;;;;;5115114;28;20486;-77
2022/06/04 03:06:39;;;;;;;55.63;52.63;;;11.90;99.40;;;;;;5115444;28;20432;-76
2022/06/04 03:09:11;;;;;;;54.87;52.37;;;11.90;99.40;;;;;;5115127;28;20439;-76
2022/06/04 03:11:44;;;;;;;57.90;55.13;;;11.90;99.50;;;;;;5115041;28;20499;-76
2022/06/04 03:14:15;;;;;;;55.17;52.67;;;11.80;99.50;;;;;;5115111;28;21043;-76
2022/06/04 03:16:46;;;;;;;55.10;52.30;;;11.80;99.50;;;;;;5115479;28;20507;-76
2022/06/04 03:19:14;;;;;;;53.13;50.63;;;11.80;99.50;;;;;;5113710;28;20518;-76
2022/06/04 03:21:43;;;;;;;55.97;53.07;;;11.80;99.60;;;;;;5115169;28;20443;-76
2022/06/04 03:24:13;;;;;;;55.17;52.63;;;11.80;99.60;;;;;;5114960;28;20451;-76
2022/06/04 03:26:42;;;;;;;56.53;53.83;;;11.80;99.70;;;;;;5113438;28;20951;-76
2022/06/04 03:29:11;;;;;;;56.07;53.27;;;11.80;99.80;;;;;;5114999;28;20451;-76
2022/06/04 03:31:40;;;;;;;58.60;55.67;;;11.70;99.80;;;;;;5113678;28;20874;-76
2022/06/04 03:34:09;;;;;;;58.07;55.20;;;11.70;99.90;;;;;;5114479;28;20477;-76
2022/06/04 03:36:38;;;;;;;61.93;58.73;;;11.60;99.90;;;;;;5114589;28;20463;-77
2022/06/04 03:39:08;;;;;;;60.73;57.83;;;11.60;99.90;;;;;;5113271;28;20439;-76
2022/06/04 03:41:40;;;;;;;58.17;55.17;;;11.60;99.90;;;;;;5114848;28;20778;-76
2022/06/04 03:44:08;;;;;;;56.60;53.90;;;11.60;99.90;;;;;;5114626;28;20462;-77
2022/06/04 03:46:37;;;;;;;55.00;52.10;;;11.60;99.90;;;;;;5113191;28;20526;-77
2022/06/04 03:49:07;;;;;;;41.77;39.27;;;11.60;99.90;;;;;;5114304;28;20439;-76
2022/06/04 03:51:37;;;;;;;46.00;43.63;;;11.60;99.90;;;;;;5113191;28;20805;-76
2022/06/04 03:54:05;;;;;;;47.87;45.57;;;11.60;99.90;;;;;;5114186;28;20971;-76
2022/06/04 03:56:34;;;;;;;48.87;46.27;;;11.60;99.90;;;;;;5113959;28;20431;-76
2022/06/04 03:59:02;;;;;;;54.53;51.73;;;11.60;99.90;;;;;;5113146;28;20500;-76
2022/06/04 04:01:31;;;;;;;54.17;51.20;;;11.60;99.90;;;;;;5114344;28;20975;-76
2022/06/04 04:04:01;;;;;;;66.93;63.70;;;11.60;99.90;;;;;;5116700;28;20989;-76
2022/06/04 04:06:32;;;;;;;65.97;62.97;;;11.60;99.90;;;;;;5114208;28;20443;-77
2022/06/04 04:09:01;;;;;;;64.47;61.47;;;11.60;99.90;;;;;;5115003;28;20522;-76
2022/06/04 04:11:29;;;;;;;67.00;63.93;;;11.60;99.90;;;;;;5114067;28;20423;-76
2022/06/04 04:13:58;;;;;;;71.73;68.33;;;11.60;99.90;;;;;;5113933;28;20548;-76
2022/06/04 04:16:26;;;;;;;65.77;62.87;;;11.60;99.90;;;;;;5113929;28;20446;-76
2022/06/04 04:18:54;;;;;;;63.43;60.43;;;11.60;99.90;;;;;;5113939;28;20871;-76
2022/06/04 04:21:23;;;;;;;63.37;60.47;;;11.50;99.90;;;;;;5113910;28;20797;-76
2022/06/04 04:23:53;;;;;;;64.23;61.17;;;11.60;99.90;;;;;;5114142;28;20978;-76
2022/06/04 04:26:21;;;;;;;58.83;55.90;;;11.60;99.90;;;;;;5112433;28;20453;-77
2022/06/04 04:28:50;;;;;;;62.43;59.53;;;11.60;99.90;;;;;;5113946;28;20936;-76
2022/06/04 04:31:20;;;;;;;62.70;59.70;;;11.50;99.90;;;;;;5112661;28;20467;-76
2022/06/04 04:33:49;;;;;;;62.60;59.50;;;11.50;99.90;;;;;;5113772;28;20555;-76
2022/06/04 04:36:17;;;;;;;59.93;57.00;;;11.60;99.90;;;;;;5112875;28;20431;-77
2022/06/04 04:38:45;;;;;;;68.27;64.67;;;11.60;99.90;;;;;;5114984;28;20451;-76
2022/06/04 04:41:16;;;;;;;67.07;64.07;;;11.60;99.90;;;;;;5119381;28;20789;-76
2022/06/04 04:43:44;;;;;;;70.07;66.70;;;11.60;99.90;;;;;;5122961;28;20458;-76
2022/06/04 04:46:15;;;;;;;70.63;67.40;;;11.60;99.90;;;;;;5123594;28;20485;-75
2022/06/04 04:48:44;;;;;;;79.30;75.80;;;11.60;99.90;;;;;;5118219;28;20424;-75
2022/06/04 04:51:15;;;;;;;84.03;80.03;;;11.60;99.90;;;;;;5112326;28;20443;-76
2022/06/04 04:53:44;;;;;;;87.87;83.63;;;11.70;99.90;;;;;;5113586;28;20551;-75
2022/06/04 04:56:17;;;;;;;87.60;83.63;;;11.70;99.90;;;;;;5113473;28;20467;-76
2022/06/04 04:58:45;;;;;;;88.40;84.30;;;11.70;99.90;;;;;;5113832;28;20419;-77
2022/06/04 05:01:15;;;;;;;91.27;86.97;;;11.80;99.90;;;;;;5113419;28;20443;-76
2022/06/04 05:03:44;;;;;;;96.43;92.13;;;11.80;99.90;;;;;;5113664;28;20500;-75
2022/06/04 05:06:14;;;;;;;86.57;82.30;;;11.90;99.90;;;;;;5112186;28;20546;-76
2022/06/04 05:08:42;;;;;;;78.30;74.63;;;12.00;99.90;;;;;;5113749;28;20854;-76
2022/06/04 05:11:12;;;;;;;61.93;58.33;;;12.00;99.90;;;;;;5117415;28;20427;-75
2022/06/04 05:13:42;;;;;;;59.53;56.33;;;12.10;99.90;;;;;;5117318;28;20559;-76
2022/06/04 05:16:10;;;;;;;61.73;58.17;;;12.10;99.90;;;;;;5116063;28;21056;-76
2022/06/04 05:18:38;;;;;;;57.90;54.37;;;12.20;99.90;;;;;;5116137;28;20451;-77
2022/06/04 05:21:11;;;;;;;60.63;56.63;;;12.30;99.90;;;;;;5116407;28;20948;-76
2022/06/04 05:23:40;;;;;;;56.93;53.07;;;12.30;99.90;;;;;;5117440;28;20459;-76
2022/06/04 05:26:08;;;;;;;58.63;54.77;;;12.40;99.90;;;;;;5117858;28;20549;-76
2022/06/04 05:28:36;;;;;;;58.87;55.10;;;12.40;99.90;;;;;;5117670;28;20420;-77
2022/06/04 05:31:06;;;;;;;58.30;54.70;;;12.60;99.90;;;;;;5117647;28;20427;-77
2022/06/04 05:33:34;;;;;;;55.87;52.57;;;12.60;99.90;;;;;;5117387;28;20463;-75
2022/06/04 05:36:03;;;;;;;52.00;48.77;;;12.70;99.90;;;;;;5117133;27;20566;-76
2022/06/04 05:38:34;;;;;;;54.27;50.97;;;12.80;99.90;;;;;;5116112;28;20822;-76
2022/06/04 05:41:06;;;;;;;52.10;48.87;;;12.90;99.90;;;;;;5117272;28;20503;-76
2022/06/04 05:43:35;;;;;;;50.80;47.80;;;13.00;99.90;;;;;;5116904;28;20500;-76
2022/06/04 05:46:07;;;;;;;45.67;42.87;;;13.20;99.90;;;;;;5117356;28;20435;-77
2022/06/04 05:48:38;;;;;;;37.47;34.97;;;13.40;99.90;;;;;;5117155;28;20848;-76
2022/06/04 05:51:09;;;;;;;39.40;36.70;;;13.60;99.90;;;;;;5117068;28;20510;-76
2022/06/04 05:53:38;;;;;;;38.20;35.80;;;13.80;99.90;;;;;;5115670;28;20465;-77
2022/06/04 05:56:12;;;;;;;40.37;37.37;;;14.00;99.90;;;;;;5117172;28;20550;-76
2022/06/04 05:58:41;;;;;;;41.97;38.90;;;14.20;99.90;;;;;;5117022;28;20971;-76
2022/06/04 06:01:10;;;;;;;38.27;35.57;;;14.40;99.90;;;;;;5116723;28;20455;-76
2022/06/04 06:03:38;;;;;;;37.20;34.47;;;14.60;99.90;;;;;;5116585;28;20960;-77
2022/06/04 06:06:13;;;;;;;40.40;37.33;;;14.80;99.90;;;;;;5115336;28;20439;-76
2022/06/04 06:09:00;;;;;;;34.90;32.63;;;14.90;99.90;;;;;;5117095;28;20892;-77
2022/06/04 06:11:28;;;;;;;33.27;31.00;;;15.10;99.90;;;;;;5116783;28;20850;-76
2022/06/04 06:13:56;;;;;;;29.63;27.63;;;15.30;99.90;;;;;;5115183;28;20475;-76
2022/06/04 06:16:31;;;;;;;29.07;26.97;;;15.50;99.90;;;;;;5116423;28;20467;-77
2022/06/04 06:19:00;;;;;;;29.00;26.70;;;15.60;99.90;;;;;;5115118;28;20492;-76
2022/06/04 06:21:31;;;;;;;28.77;26.77;;;15.80;99.90;;;;;;5115784;28;20435;-77
2022/06/04 06:24:00;;;;;;;32.17;29.97;;;16.00;99.90;;;;;;5114882;28;20437;-76
2022/06/04 06:26:30;;;;;;;27.93;25.90;;;16.20;99.90;;;;;;5114846;28;20426;-76
2022/06/04 06:29:01;;;;;;;27.50;25.27;;;16.40;99.90;;;;;;5115973;28;20431;-76
2022/06/04 06:31:32;;;;;;;29.77;27.67;;;16.50;99.90;;;;;;5116551;28;20406;-77
2022/06/04 06:34:01;;;;;;;27.17;25.07;;;16.80;99.90;;;;;;5116423;28;20479;-76
2022/06/04 06:36:29;;;;;;;25.47;23.57;;;17.00;99.90;;;;;;5115875;28;20867;-75
2022/06/04 06:38:58;;;;;;;25.30;23.17;;;17.20;99.90;;;;;;5116338;28;20406;-76
2022/06/04 06:41:27;;;;;;;23.50;21.50;;;17.30;99.90;;;;;;5113756;28;20414;-77
2022/06/04 06:43:56;;;;;;;22.77;20.87;;;17.50;99.90;;;;;;5113356;28;20466;-75
2022/06/04 06:46:27;;;;;;;23.30;21.27;;;17.60;99.90;;;;;;5102983;28;20937;-77
2022/06/04 06:49:01;;;;;;;20.53;18.70;;;17.70;99.90;;;;;;5115249;28;20891;-77
2022/06/04 06:51:31;;;;;;;21.67;19.97;;;17.90;99.90;;;;;;5116057;28;20444;-75
2022/06/04 06:54:00;;;;;;;21.20;19.30;;;18.10;99.90;;;;;;5115944;28;20429;-76
2022/06/04 06:56:31;;;;;;;22.43;20.33;;;18.30;99.90;;;;;;5116373;28;20558;-77
2022/06/04 06:59:01;;;;;;;21.80;20.03;;;18.40;99.90;;;;;;5115738;28;20412;-79
2022/06/04 07:01:31;;;;;;;18.67;16.93;;;18.60;99.90;;;;;;5114729;28;20524;-77
2022/06/04 07:04:02;;;;;;;20.00;18.30;;;18.70;99.90;;;;;;5115645;28;20494;-77
2022/06/04 07:06:34;;;;;;;21.17;19.00;;;18.70;99.90;;;;;;5115770;28;20394;-76
2022/06/04 07:09:04;;;;;;;19.60;18.00;;;18.80;99.90;;;;;;5114951;28;20428;-77
2022/06/04 07:11:33;;;;;;;20.03;18.33;;;18.90;99.90;;;;;;5120985;28;20472;-77
2022/06/04 07:14:02;;;;;;;19.87;18.17;;;19.00;99.90;;;;;;5117136;28;20988;-78
2022/06/04 07:16:30;;;;;;;18.87;17.13;;;19.10;99.90;;;;;;5115624;28;20547;-78
2022/06/04 07:19:01;;;;;;;18.97;17.40;;;19.20;99.90;;;;;;5117108;28;20443;-78
2022/06/04 07:21:30;;;;;;;19.70;17.80;;;19.40;99.80;;;;;;5118596;28;20428;-78
2022/06/04 07:23:59;;;;;;;20.17;18.37;;;19.50;99.60;;;;;;5118402;28;20455;-79
2022/06/04 07:26:28;;;;;;;19.27;17.87;;;19.60;99.40;;;;;;5117978;28;20486;-78
2022/06/04 07:28:56;;;;;;;18.03;15.40;;;19.80;99.20;;;;;;5118233;28;20444;-78
2022/06/04 07:31:25;;;;;;;15.73;14.33;;;19.80;98.90;;;;;;5116257;28;20534;-77
2022/06/04 07:33:55;;;;;;;15.77;14.30;;;19.80;98.80;;;;;;5115057;28;20462;-77
2022/06/04 07:36:29;;;;;;;18.17;15.33;;;19.90;98.90;;;;;;5115131;28;20510;-76
2022/06/04 07:38:57;;;;;;;17.30;15.80;;;19.90;98.70;;;;;;5114511;28;20538;-76
2022/06/04 07:41:28;;;;;;;18.90;17.20;;;20.00;98.70;;;;;;5115048;28;20944;-76
2022/06/04 07:43:57;;;;;;;17.43;15.83;;;20.10;98.70;;;;;;5117002;28;20955;-78
2022/06/04 07:46:27;;;;;;;18.27;16.87;;;20.10;98.50;;;;;;5114824;28;20435;-78
2022/06/04 07:48:56;;;;;;;17.50;15.83;;;20.20;98.40;;;;;;5113513;28;20904;-76
2022/06/04 07:51:25;;;;;;;18.10;16.50;;;20.30;98.30;;;;;;5113862;28;20451;-77
2022/06/04 07:53:54;;;;;;;16.73;15.23;;;20.30;98.20;;;;;;5115064;28;20447;-77
2022/06/04 07:56:23;;;;;;;15.20;13.80;;;20.40;98.20;;;;;;5115268;28;20988;-77
2022/06/04 07:58:51;;;;;;;15.20;13.73;;;20.50;98.10;;;;;;5114851;28;20489;-77
2022/06/04 08:01:22;;;;;;;16.27;14.60;;;20.60;97.90;;;;;;5115184;28;20530;-78
2022/06/04 08:03:51;;;;;;;15.30;13.80;;;20.70;97.70;;;;;;5115285;28;20447;-77
2022/06/04 08:06:21;;;;;;;15.97;14.47;;;20.70;97.60;;;;;;5114634;28;20423;-77
2022/06/04 08:08:54;;;;;;;15.07;13.67;;;20.70;97.50;;;;;;5113758;28;20902;-79
2022/06/04 08:11:32;;;;;;;16.80;15.23;;;20.70;97.50;;;;;;5114901;28;20420;-77
2022/06/04 08:14:05;;;;;;;16.63;15.17;;;20.80;97.40;;;;;;5115375;28;20546;-78
2022/06/04 08:16:34;;;;;;;16.57;14.73;;;20.80;97.10;;;;;;5114770;28;20504;-77
2022/06/04 08:19:04;;;;;;;16.47;14.87;;;20.80;96.90;;;;;;5114997;28;20431;-77
2022/06/04 08:21:32;;;;;;;15.40;14.00;;;20.70;96.90;;;;;;5113712;28;21080;-76
2022/06/04 08:24:03;;;;;;;15.17;13.63;;;20.70;96.80;;;;;;5115284;28;20978;-77
2022/06/04 08:26:31;;;;;;;14.20;12.70;;;20.70;96.70;;;;;;5114737;28;21030;-77
2022/06/04 08:28:59;;;;;;;16.33;14.70;;;20.70;96.70;;;;;;5113196;28;20447;-76
2022/06/04 08:31:29;;;;;;;15.70;14.37;;;20.70;96.70;;;;;;5113456;28;20458;-77
2022/06/04 08:33:57;;;;;;;14.87;13.47;;;20.80;96.80;;;;;;5113097;28;20829;-78
2022/06/04 08:36:26;;;;;;;15.53;14.17;;;20.90;96.80;;;;;;5114055;28;20489;-76
2022/06/04 08:38:54;;;;;;;16.80;15.10;;;20.90;96.50;;;;;;5112822;28;20956;-77
2022/06/04 08:41:39;;;;;;;19.90;17.17;;;21.00;96.40;;;;;;5114804;28;20955;-77
2022/06/04 08:44:14;;;;;;;15.40;13.90;;;21.00;96.20;;;;;;5117937;28;20490;-77
2022/06/04 08:46:46;;;;;;;13.67;12.47;;;21.00;96.00;;;;;;5119297;28;20884;-76
2022/06/04 08:49:18;;;;;;;14.80;13.40;;;21.00;96.00;;;;;;5118917;28;20420;-77
2022/06/04 08:51:46;;;;;;;13.20;11.40;;;21.00;95.80;;;;;;5118910;27;20415;-75
2022/06/04 08:59:59;;;;;;;13.50;12.20;;;21.10;95.80;;;;;;5119168;28;20423;-76
2022/06/04 09:02:41;;;;;;;12.87;11.60;;;21.20;95.80;;;;;;5118925;28;20506;-77
2022/06/04 09:05:21;;;;;;;12.93;11.10;;;21.20;95.60;;;;;;5118516;28;20481;-76
2022/06/04 09:07:54;;;;;;;13.80;11.37;;;21.30;95.60;;;;;;5118444;28;20420;-76
2022/06/04 09:10:25;;;;;;;12.83;11.73;;;21.30;95.40;;;;;;5118295;28;20410;-77
2022/06/04 09:12:59;;;;;;;11.23;10.03;;;21.40;95.40;;;;;;5118508;28;20424;-77
2022/06/04 09:15:32;;;;;;;12.37;11.13;;;21.40;95.40;;;;;;5118338;28;20486;-77
2022/06/04 09:18:05;;;;;;;12.47;11.23;;;21.50;95.50;;;;;;5118468;28;20542;-80
2022/06/04 09:20:37;;;;;;;12.87;11.67;;;21.70;95.40;;;;;;5118495;28;20481;-76
2022/06/04 09:23:12;;;;;;;13.40;12.10;;;21.70;95.30;;;;;;5118843;28;20494;-76
2022/06/04 09:25:47;;;;;;;12.93;11.63;;;21.80;95.30;;;;;;5118240;28;20815;-77
2022/06/04 09:28:27;;;;;;;12.20;11.00;;;21.90;95.20;;;;;;5118151;28;20601;-77
2022/06/04 09:31:09;;;;;;;13.40;12.20;;;21.90;95.00;;;;;;5116688;28;20481;-78
2022/06/04 09:33:52;;;;;;;11.93;9.90;;;21.90;95.00;;;;;;5117041;28;20477;-77
2022/06/04 09:36:25;;;;;;;12.63;11.10;;;21.90;95.00;;;;;;5117805;28;20443;-77
2022/06/04 09:38:56;;;;;;;11.93;10.73;;;22.00;94.70;;;;;;5116202;28;20442;-78
2022/06/04 09:41:27;;;;;;;12.43;11.17;;;22.00;94.50;;;;;;5116718;28;20481;-77
2022/06/04 09:44:13;;;;;;;12.70;11.60;;;21.90;94.50;;;;;;5117388;28;20520;-76
2022/06/04 09:46:44;;;;;;;13.40;11.57;;;22.00;94.50;;;;;;5116537;28;20439;-77
2022/06/04 09:49:30;;;;;;;11.93;10.83;;;22.00;94.40;;;;;;5117749;28;20416;-77
2022/06/04 09:52:00;;;;;;;10.80;9.10;;;22.00;94.30;;;;;;5116334;28;20492;-76
2022/06/04 09:54:32;;;;;;;11.30;10.17;;;22.00;94.20;;;;;;5117389;28;20558;-78
2022/06/04 09:57:04;;;;;;;11.97;10.50;;;22.00;94.00;;;;;;5117476;28;20459;-79
2022/06/04 09:59:35;;;;;;;14.47;9.40;;;22.00;94.10;;;;;;5119266;28;20417;-78
2022/06/04 10:02:18;;;;;;;10.87;9.80;;;22.00;94.10;;;;;;5117361;28;20447;-79
2022/06/04 10:04:49;;;;;;;13.47;9.83;;;22.10;93.80;;;;;;5118742;28;20469;-78
2022/06/04 10:07:20;;;;;;;10.80;9.70;;;22.20;93.80;;;;;;5117513;28;20531;-78
2022/06/04 10:09:56;;;;;;;11.20;9.87;;;22.20;93.40;;;;;;5117809;28;20432;-79
2022/06/04 10:15:30;;;;;;;9.50;8.07;;;22.30;93.40;;;;;;5119851;28;20451;-78
2022/06/04 10:18:06;;;;;;;10.40;7.93;;;22.40;93.20;;;;;;5116989;28;20951;-77
2022/06/04 10:20:35;;;;;;;9.17;8.17;;;22.50;92.90;;;;;;5116118;28;20431;-76
2022/06/04 10:23:13;;;;;;;10.70;8.10;;;22.50;92.70;;;;;;5115616;28;20538;-78
2022/06/04 10:25:49;;;;;;;9.20;8.30;;;22.50;92.50;;;;;;5115639;28;20436;-77
2022/06/04 10:28:28;;;;;;;9.50;8.10;;;22.60;92.50;;;;;;5115956;28;20435;-76
2022/06/04 10:31:05;;;;;;;11.13;7.97;;;22.60;92.50;;;;;;5117642;28;20423;-78
2022/06/04 10:33:44;;;;;;;10.20;7.90;;;22.70;92.30;;;;;;5116545;28;20464;-76
2022/06/04 10:36:27;;;;;;;9.13;7.50;;;22.70;92.20;;;;;;5118038;28;20420;-78
2022/06/04 10:39:07;;;;;;;9.47;7.30;;;22.80;91.90;;;;;;5115524;28;20550;-78
2022/06/04 10:41:44;;;;;;;10.50;8.60;;;22.90;91.90;;;;;;5116639;28;20415;-76
2022/06/04 10:44:34;;;;;;;9.43;7.77;;;22.90;91.50;;;;;;5116724;28;20557;-76
2022/06/04 10:47:31;;;;;;;10.23;8.03;;;22.90;91.20;;;;;;5117095;28;20510;-76
2022/06/04 10:50:21;;;;;;;9.67;8.03;;;22.90;91.10;;;;;;5115501;28;20915;-75
2022/06/04 10:52:54;;;;;;;9.67;8.10;;;22.80;90.80;;;;;;5116797;28;20408;-77
2022/06/04 10:55:32;;;;;;;8.93;6.47;;;22.90;91.10;;;;;;5116673;28;20566;-77
2022/06/04 10:58:18;;;;;;;6.70;5.50;;;22.90;91.00;;;;;;5114781;28;20558;-77
2022/06/04 11:00:50;;;;;;;8.80;6.00;;;22.90;90.60;;;;;;5116404;27;20423;-78
2022/06/04 11:03:28;;;;;;;9.07;6.50;;;23.00;90.40;;;;;;5116748;28;20431;-77
2022/06/04 11:06:05;;;;;;;8.63;7.27;;;23.00;90.30;;;;;;5114820;28;20431;-78
2022/06/04 11:08:38;;;;;;;7.10;6.27;;;23.00;90.30;;;;;;5115454;28;20423;-77
2022/06/04 11:11:13;;;;;;;6.67;5.70;;;23.10;90.40;;;;;;5115297;28;20807;-77
2022/06/04 11:13:45;;;;;;;8.40;6.87;;;23.10;90.40;;;;;;5114614;28;20466;-77
2022/06/04 11:16:18;;;;;;;8.13;6.57;;;23.10;90.30;;;;;;5116359;28;20428;-78
2022/06/04 11:18:56;;;;;;;12.90;7.00;;;23.10;90.20;;;;;;5114709;28;20459;-76
2022/06/04 11:21:28;;;;;;;9.00;7.63;;;23.10;90.20;;;;;;5116101;28;20484;-76
2022/06/04 11:24:03;;;;;;;8.40;6.70;;;23.10;90.30;;;;;;5114667;28;20532;-76
2022/06/04 11:26:36;;;;;;;8.50;6.90;;;23.10;90.10;;;;;;5115128;28;20537;-76
2022/06/04 11:29:06;;;;;;;9.33;7.07;;;23.00;90.20;;;;;;5114577;28;20439;-76
2022/06/04 11:31:51;;;;;;;9.53;6.97;;;23.00;90.20;;;;;;5113812;28;20446;-76
2022/06/04 11:34:50;;;;;;;7.17;6.33;;;23.00;90.10;;;;;;5115035;28;20454;-77
2022/06/04 11:37:30;;;;;;;8.03;7.20;;;23.00;90.10;;;;;;5115840;28;20811;-76
2022/06/04 11:40:18;;;;;;;7.37;6.17;;;23.00;90.10;;;;;;5115627;27;20468;-76
2022/06/04 11:42:54;;;;;;;8.37;7.03;;;23.00;90.00;;;;;;5115137;28;20473;-76
2022/06/04 11:45:40;;;;;;;8.90;6.60;;;23.00;90.10;;;;;;5113175;28;20470;-75
2022/06/04 11:48:31;;;;;;;7.10;6.17;;;23.00;90.00;;;;;;5114931;28;20878;-75
2022/06/04 11:51:22;;;;;;;7.57;6.10;;;23.10;89.60;;;;;;5112330;28;20550;-77
2022/06/04 11:53:54;;;;;;;9.03;6.47;;;23.10;89.70;;;;;;5114073;28;20471;-77
2022/06/04 11:56:32;;;;;;;8.07;6.83;;;23.10;89.70;;;;;;5114192;28;20501;-78
2022/06/04 11:59:19;;;;;;;8.90;7.00;;;23.10;89.80;;;;;;5115019;28;20462;-77
2022/06/04 12:01:51;;;;;;;9.13;6.80;;;23.10;89.70;;;;;;5116141;28;20476;-78
2022/06/04 12:04:27;;;;;;;10.67;6.40;;;23.10;89.30;;;;;;5113857;28;20521;-76
2022/06/04 12:07:06;;;;;;;7.70;6.00;;;23.10;88.90;;;;;;5115195;28;20412;-76
2022/06/04 12:09:41;;;;;;;7.37;5.90;;;23.20;88.80;;;;;;5113706;28;20532;-76
2022/06/04 12:12:18;;;;;;;7.13;5.63;;;23.20;88.60;;;;;;5114935;28;20817;-76
2022/06/04 12:14:53;;;;;;;9.07;6.20;;;23.30;88.10;;;;;;5113292;28;20463;-77
2022/06/04 12:17:25;;;;;;;6.63;5.10;;;23.30;88.10;;;;;;5113291;28;20526;-76
2022/06/04 12:25:38;;;;;;;8.70;6.33;;;23.30;87.30;;;;;;5115072;28;20463;-76
2022/06/04 12:28:22;;;;;;;7.03;5.60;;;23.30;87.40;;;;;;5113849;28;20545;-78
2022/06/04 12:30:51;;;;;;;6.37;5.00;;;23.30;87.30;;;;;;5113922;28;20419;-76
2022/06/04 12:33:39;;;;;;;6.90;5.40;;;23.30;87.10;;;;;;5114679;28;20531;-77
2022/06/04 12:36:10;;;;;;;7.53;5.20;;;23.30;86.80;;;;;;5113969;28;20530;-78
2022/06/04 12:38:42;;;;;;;6.53;4.87;;;23.30;86.40;;;;;;5113690;28;20459;-78
2022/06/04 12:41:16;;;;;;;7.57;5.50;;;23.20;86.20;;;;;;5115486;28;20416;-77
2022/06/04 12:43:48;;;;;;;8.10;6.30;;;23.20;86.10;;;;;;5113387;28;20491;-77
2022/06/04 12:46:30;;;;;;;7.53;5.90;;;23.20;86.10;;;;;;5114987;28;20415;-78
2022/06/04 12:49:03;;;;;;;6.87;5.37;;;23.20;86.20;;;;;;5115197;28;20519;-77
2022/06/04 12:51:48;;;;;;;6.63;5.23;;;23.20;86.10;;;;;;5116314;28;20876;-77
2022/06/04 12:54:49;;;;;;;6.43;5.57;;;23.30;85.70;;;;;;5114762;28;20487;-76
2022/06/04 12:57:35;;;;;;;7.00;6.07;;;23.30;85.70;;;;;;5115241;28;20463;-77
2022/06/04 13:00:20;;;;;;;9.03;5.87;;;23.30;86.00;;;;;;5113166;28;20477;-77
2022/06/04 13:03:00;;;;;;;6.43;5.10;;;23.30;85.80;;;;;;5115187;28;20441;-77
2022/06/04 13:05:29;;;;;;;7.63;5.50;;;23.30;85.90;;;;;;5116006;28;20487;-77
2022/06/04 13:08:02;;;;;;;7.30;5.90;;;23.30;86.40;;;;;;5115528;28;20523;-78
2022/06/04 13:10:41;;;;;;;6.80;5.63;;;23.30;86.20;;;;;;5115818;28;20841;-78
2022/06/04 13:13:24;;;;;;;7.83;6.10;;;23.30;86.10;;;;;;5115747;28;20923;-79
2022/06/04 13:15:54;;;;;;;6.97;5.37;;;23.30;85.80;;;;;;5117354;28;20430;-78
2022/06/04 13:18:26;;;;;;;7.53;5.90;;;23.30;85.90;;;;;;5117288;28;20805;-78
2022/06/04 13:20:58;;;;;;;8.17;6.43;;;23.40;85.90;;;;;;5117128;28;20522;-78
2022/06/04 13:23:33;;;;;;;7.00;5.50;;;23.40;85.80;;;;;;5116622;28;20928;-78